Rawlins Municipal Harvey Field Rawlins US
ICAO: KRWL
IATA: RWL
Category: Medium
Scheduled Services: No

Elevation: 6813 ft
TransAlt. 18000 ft.

Airport Communications:
ASOS:118.525
DENVER CNTR:132.1
CASPER RDO:122.2
CTAF/UNICOM:123

KRWL Zoom In..

If you have problems with the map follow the link
https://www.worldairports.se/pages/airport.php?
ICAO=KRWL

Runways:

(A) RW 04 length 7008 ft width 100 ft
---- / hdg 41

(B) RW 10 length 4322 ft width 60 ft
---- / hdg 102

(C) RW 22 length 7008 ft width 100 ft
---- / hdg 221

(D) RW 28 length 4322 ft width 60 ft
---- / hdg 282

Location; KRWL
Day. 29 / Time. 11.53 Zulu
* Altimeter: 30.02
* Temperature: -03° c. -26.6°f.
* Wind from: 240° Speed 11 kn.
Dewpoint: -06° c.
Visibility: 8 Statute Miles.
Clouds: Few 4500 ft.
Clouds: Scattered 8000 ft.
Clouds: Overcast 11000 ft.
Conditions: Light Snow.

KRWL 291153Z AUTO 24011KT 8SM -SN FEW045 SCT080 OVC110 M03/M06 A3002 RMK AO2 SLP186 P0000 60000 T10331056 11017 21033 55001


Wind From 240°
Speed 11 kn.

 
 
jpsmedia worldairports.se 2020   terms of use